Time;durP1;ratioP1;P1;durP2;ratioP2;P2;SDS_P1;SDS_P2;PMS_P1;PMS_P2;Temp;Humidity;BMP_temperature;BMP_pressure;BME280_temperature;BME280_humidity;BME280_pressure;Samples;Min_cycle;Max_cycle;Signal;HPM_P1;HPM_P2
2024/02/09 00:00:21;;;;;;;34.05;11.80;;;9.50;99.90;;;;;;5038613;28;20362;-74
2024/02/09 00:02:47;;;;;;;31.35;12.60;;;9.50;99.90;;;;;;5041825;28;20481;-74
2024/02/09 00:05:17;;;;;;;32.88;11.63;;;9.50;99.90;;;;;;5034067;28;20057;-73
2024/02/09 00:07:48;;;;;;;29.23;12.07;;;9.60;99.90;;;;;;5033597;28;20474;-75
2024/02/09 00:10:18;;;;;;;35.67;12.27;;;9.60;99.90;;;;;;5034065;28;20021;-74
2024/02/09 00:12:45;;;;;;;26.48;11.68;;;9.60;99.90;;;;;;5035200;28;20025;-75
2024/02/09 00:15:10;;;;;;;30.75;11.57;;;9.60;99.90;;;;;;5053651;28;20044;-74
2024/02/09 00:17:36;;;;;;;24.05;9.77;;;9.60;99.90;;;;;;5053701;28;20064;-73
2024/02/09 00:20:07;;;;;;;32.75;11.57;;;9.70;99.90;;;;;;5049892;28;20608;-74
2024/02/09 00:22:36;;;;;;;28.75;10.85;;;9.70;99.90;;;;;;5034171;28;20381;-73
2024/02/09 00:25:08;;;;;;;34.72;11.93;;;9.70;99.90;;;;;;5033002;28;20037;-74
2024/02/09 00:27:34;;;;;;;29.50;12.57;;;9.70;99.90;;;;;;5034067;28;20474;-74
2024/02/09 00:30:00;;;;;;;24.15;11.10;;;9.70;99.90;;;;;;5032865;28;20033;-74
2024/02/09 00:32:25;;;;;;;24.23;9.75;;;9.80;99.90;;;;;;5033723;28;20033;-74
2024/02/09 00:34:51;;;;;;;25.60;10.82;;;9.80;99.90;;;;;;5043036;28;20057;-74
2024/02/09 00:37:21;;;;;;;22.83;10.10;;;9.80;99.90;;;;;;5039153;28;20029;-74
2024/02/09 00:39:48;;;;;;;19.25;9.40;;;9.80;99.90;;;;;;5033052;28;20029;-74
2024/02/09 00:42:13;;;;;;;27.73;9.82;;;9.80;99.90;;;;;;5033040;28;20040;-73
2024/02/09 00:44:39;;;;;;;23.90;8.98;;;9.80;99.90;;;;;;5037471;28;20025;-74
2024/02/09 00:47:07;;;;;;;27.25;9.70;;;9.80;99.90;;;;;;5052484;28;20021;-74
2024/02/09 00:49:34;;;;;;;28.83;9.73;;;9.80;99.90;;;;;;5034870;28;20029;-74
2024/02/09 00:52:00;;;;;;;28.38;10.65;;;9.80;99.90;;;;;;5032684;28;20389;-74
2024/02/09 00:54:26;;;;;;;23.02;8.60;;;9.80;99.90;;;;;;5033292;28;20478;-74
2024/02/09 00:56:52;;;;;;;24.02;9.40;;;9.80;99.90;;;;;;5051265;28;20029;-73
2024/02/09 00:59:18;;;;;;;26.05;9.43;;;9.80;99.90;;;;;;5051371;28;20033;-73
2024/02/09 01:01:45;;;;;;;22.00;8.95;;;9.80;99.90;;;;;;5033271;28;20421;-74
2024/02/09 01:04:11;;;;;;;24.23;9.15;;;9.80;99.90;;;;;;5033123;28;20481;-74
2024/02/09 01:06:41;;;;;;;31.88;9.13;;;9.90;99.90;;;;;;5045573;28;20521;-74
2024/02/09 01:09:10;;;;;;;27.63;8.90;;;9.80;99.90;;;;;;5039839;28;20096;-74
2024/02/09 01:11:38;;;;;;;30.13;9.45;;;9.90;99.90;;;;;;5032761;28;20036;-74
2024/02/09 02:46:46;;;;;;;22.92;6.82;;;9.80;99.90;;;;;;5045801;28;20470;-74
2024/02/09 03:05:35;;;;;;;20.25;6.82;;;9.90;99.90;;;;;;5037188;28;20040;-74
2024/02/09 03:08:02;;;;;;;17.73;6.07;;;9.90;99.90;;;;;;5032464;28;20478;-74
2024/02/09 03:10:27;;;;;;;23.80;6.22;;;9.90;99.90;;;;;;5030684;28;20537;-74
2024/02/09 03:12:53;;;;;;;15.88;6.22;;;9.80;99.90;;;;;;5032390;28;20108;-73
2024/02/09 03:15:19;;;;;;;30.50;6.88;;;9.80;99.90;;;;;;5035240;28;20025;-74
2024/02/09 03:17:49;;;;;;;18.40;6.15;;;9.80;99.90;;;;;;5042997;28;20036;-74
2024/02/09 03:20:14;;;;;;;18.08;5.55;;;9.90;99.90;;;;;;5034912;28;20385;-74
2024/02/09 03:22:40;;;;;;;19.88;6.25;;;9.80;99.90;;;;;;5034945;28;20029;-74
2024/02/09 03:25:07;;;;;;;16.65;5.18;;;9.80;99.90;;;;;;5033950;28;20025;-74
2024/02/09 03:27:35;;;;;;;16.27;6.10;;;9.80;99.90;;;;;;5034591;28;20465;-74
2024/02/09 03:30:03;;;;;;;18.10;5.88;;;9.90;99.90;;;;;;5034466;28;20026;-74
2024/02/09 03:32:32;;;;;;;14.82;6.32;;;9.80;99.90;;;;;;5034771;28;20018;-74
2024/02/09 03:34:58;;;;;;;16.40;5.93;;;9.90;99.90;;;;;;5039483;28;20028;-74
2024/02/09 03:37:26;;;;;;;14.52;5.13;;;9.80;99.90;;;;;;5041348;28;20112;-74
2024/02/09 03:39:52;;;;;;;16.17;6.10;;;9.90;99.90;;;;;;5034132;28;20449;-74
2024/02/09 03:42:21;;;;;;;18.98;6.18;;;9.80;99.90;;;;;;5034330;28;20520;-74
2024/02/09 03:44:48;;;;;;;18.13;5.80;;;9.90;99.90;;;;;;5033952;28;20375;-74
2024/02/09 03:47:14;;;;;;;15.10;5.65;;;9.80;99.90;;;;;;5050226;28;20017;-73
2024/02/09 03:49:40;;;;;;;16.58;5.38;;;9.80;99.90;;;;;;5034482;28;20069;-74
2024/02/09 03:52:06;;;;;;;18.25;5.85;;;9.80;99.90;;;;;;5033780;28;20041;-74
2024/02/09 03:54:32;;;;;;;13.23;5.28;;;9.90;99.90;;;;;;5034366;28;20041;-74
2024/02/09 03:56:58;;;;;;;12.52;5.70;;;9.90;99.90;;;;;;5041381;28;20037;-74
2024/02/09 03:59:24;;;;;;;12.25;5.45;;;9.90;99.90;;;;;;5034217;28;20038;-74
2024/02/09 04:01:49;;;;;;;14.27;5.32;;;9.90;99.90;;;;;;5034722;28;20029;-74
2024/02/09 04:04:15;;;;;;;9.32;4.63;;;9.90;99.90;;;;;;5032966;28;20033;-74
2024/02/09 04:06:40;;;;;;;13.68;5.13;;;9.80;99.90;;;;;;5041708;28;20032;-74
2024/02/09 04:09:06;;;;;;;11.38;4.28;;;9.90;99.90;;;;;;5033743;28;20129;-74
2024/02/09 04:11:31;;;;;;;12.02;4.63;;;9.80;99.90;;;;;;5033859;28;20032;-74
2024/02/09 04:13:57;;;;;;;13.05;4.00;;;9.90;99.90;;;;;;5033353;28;20088;-74
2024/02/09 04:16:22;;;;;;;10.52;4.57;;;9.80;99.90;;;;;;5033805;28;20028;-74
2024/02/09 04:18:48;;;;;;;13.23;4.82;;;9.90;99.90;;;;;;5033425;28;20041;-74
2024/02/09 04:21:15;;;;;;;13.70;4.32;;;9.80;99.90;;;;;;5033726;28;20037;-74
2024/02/09 04:23:42;;;;;;;10.82;3.30;;;9.80;99.90;;;;;;5033393;28;20022;-74
2024/02/09 04:26:08;;;;;;;12.13;4.00;;;9.80;99.90;;;;;;5044462;28;20480;-74
2024/02/09 04:28:34;;;;;;;15.20;5.97;;;9.80;99.90;;;;;;5052664;28;20047;-74
2024/02/09 04:31:00;;;;;;;10.90;3.85;;;9.80;99.90;;;;;;5042530;28;20104;-74
2024/02/09 04:33:25;;;;;;;10.57;3.72;;;9.80;99.90;;;;;;5033820;28;20030;-74
2024/02/09 04:35:51;;;;;;;8.07;3.05;;;9.80;99.90;;;;;;5033424;28;20024;-74
2024/02/09 04:38:17;;;;;;;8.73;4.10;;;9.80;99.90;;;;;;5033172;28;20490;-74
2024/02/09 04:40:44;;;;;;;10.40;3.35;;;9.90;99.90;;;;;;5032826;28;20021;-74
2024/02/09 04:43:09;;;;;;;13.38;3.85;;;9.80;99.90;;;;;;5033464;28;20021;-74
2024/02/09 04:45:35;;;;;;;9.48;3.47;;;9.80;99.90;;;;;;5039962;28;20025;-74
2024/02/09 04:48:01;;;;;;;11.75;3.97;;;9.90;99.90;;;;;;5032842;28;21044;-74
2024/02/09 04:50:26;;;;;;;7.97;3.90;;;9.90;99.90;;;;;;5033356;28;20477;-74
2024/02/09 04:52:52;;;;;;;10.25;3.40;;;9.80;99.90;;;;;;5032912;28;20394;-74
2024/02/09 04:55:18;;;;;;;9.75;3.65;;;9.90;99.90;;;;;;5041468;28;20025;-74
2024/02/09 04:57:43;;;;;;;9.68;3.15;;;9.90;99.90;;;;;;5032812;28;20497;-74
2024/02/09 05:00:10;;;;;;;9.05;3.45;;;9.90;99.90;;;;;;5032996;28;20034;-74
2024/02/09 05:02:37;;;;;;;6.43;3.08;;;9.90;99.90;;;;;;5037709;28;20482;-74
2024/02/09 05:05:07;;;;;;;10.45;3.72;;;10.00;99.90;;;;;;5033455;28;20040;-74
2024/02/09 05:07:33;;;;;;;6.20;3.13;;;10.00;99.90;;;;;;5033260;28;20025;-74
2024/02/09 05:09:59;;;;;;;8.57;3.20;;;10.00;99.90;;;;;;5031021;28;20482;-74
2024/02/09 05:12:25;;;;;;;7.90;3.40;;;10.00;99.90;;;;;;5032961;28;20021;-74
2024/02/09 05:14:54;;;;;;;8.93;3.60;;;10.00;99.90;;;;;;5032498;28;20021;-74
2024/02/09 05:17:20;;;;;;;6.75;3.30;;;10.00;99.90;;;;;;5032192;28;20552;-74
2024/02/09 05:19:46;;;;;;;6.88;2.90;;;10.00;99.90;;;;;;5032281;28;20120;-74
2024/02/09 05:22:11;;;;;;;9.85;3.90;;;10.00;99.90;;;;;;5032615;28;20097;-74
2024/02/09 05:24:37;;;;;;;6.85;2.70;;;10.00;99.90;;;;;;5032619;28;20048;-74
2024/02/09 05:27:03;;;;;;;5.80;3.35;;;10.10;99.90;;;;;;5043202;28;20557;-74
2024/02/09 05:29:29;;;;;;;7.43;3.88;;;10.00;99.90;;;;;;5052759;28;20025;-74
2024/02/09 05:31:57;;;;;;;7.75;4.05;;;10.10;99.90;;;;;;5035605;28;20061;-74
2024/02/09 05:34:26;;;;;;;7.50;2.88;;;10.10;99.90;;;;;;5036127;28;20021;-74
2024/02/09 05:36:54;;;;;;;12.25;3.17;;;10.10;99.90;;;;;;5051196;28;20031;-74
2024/02/09 05:39:20;;;;;;;11.80;3.33;;;10.10;99.90;;;;;;5032067;28;20040;-74
2024/02/09 05:41:45;;;;;;;8.98;2.47;;;10.10;99.90;;;;;;5031919;28;20018;-74
2024/02/09 05:44:12;;;;;;;7.07;2.35;;;10.10;99.90;;;;;;5030846;28;20061;-74
2024/02/09 05:46:38;;;;;;;6.97;2.50;;;10.10;99.90;;;;;;5032721;28;20033;-74
2024/02/09 05:49:06;;;;;;;9.13;2.22;;;10.10;99.90;;;;;;5031327;28;20057;-74
2024/02/09 05:51:33;;;;;;;4.05;1.85;;;10.10;99.90;;;;;;5032001;28;20025;-74
2024/02/09 05:53:59;;;;;;;6.45;2.22;;;10.10;99.90;;;;;;5031724;28;20036;-74
2024/02/09 05:56:27;;;;;;;7.68;2.13;;;10.00;99.90;;;;;;5045624;28;20108;-74
2024/02/09 05:58:56;;;;;;;3.88;1.88;;;9.90;99.90;;;;;;5051916;28;20082;-74
2024/02/09 06:01:29;;;;;;;6.53;1.85;;;9.90;99.90;;;;;;5037897;28;20492;-74
2024/02/09 06:03:54;;;;;;;6.72;1.85;;;9.80;99.90;;;;;;5035031;28;20116;-74
2024/02/09 06:06:20;;;;;;;6.30;2.30;;;9.80;99.90;;;;;;5031601;28;20109;-74
2024/02/09 06:08:47;;;;;;;7.93;2.30;;;9.80;99.90;;;;;;5031804;28;20655;-74
2024/02/09 06:11:15;;;;;;;8.02;2.00;;;9.90;99.90;;;;;;5031889;28;20143;-74
2024/02/09 06:13:45;;;;;;;5.25;1.88;;;9.90;99.90;;;;;;5031797;28;20034;-74
2024/02/09 06:16:19;;;;;;;5.45;1.52;;;9.90;99.90;;;;;;5031666;28;20034;-74
2024/02/09 06:18:45;;;;;;;5.00;2.22;;;9.90;99.90;;;;;;5030920;28;20374;-74
2024/02/09 06:21:11;;;;;;;5.75;2.00;;;9.90;99.90;;;;;;5031716;28;20172;-74
2024/02/09 06:23:39;;;;;;;7.18;1.88;;;10.00;99.90;;;;;;5031393;28;20112;-74
2024/02/09 06:26:05;;;;;;;5.10;1.90;;;10.00;99.90;;;;;;5031401;28;20474;-74
2024/02/09 06:28:30;;;;;;;6.95;1.75;;;10.00;99.90;;;;;;5031590;28;20030;-74
2024/02/09 06:30:56;;;;;;;6.68;1.60;;;10.00;99.90;;;;;;5031249;28;20025;-74
2024/02/09 06:33:21;;;;;;;7.32;2.35;;;10.00;99.90;;;;;;5031048;28;20359;-74
2024/02/09 06:35:48;;;;;;;7.38;1.92;;;10.00;99.90;;;;;;5031149;28;20061;-74
2024/02/09 06:38:14;;;;;;;3.75;1.80;;;10.10;99.90;;;;;;5031393;28;20029;-74
2024/02/09 06:40:40;;;;;;;6.47;1.50;;;10.10;99.90;;;;;;5031433;28;20021;-74
2024/02/09 06:43:06;;;;;;;7.95;1.42;;;10.10;99.90;;;;;;5030867;28;20351;-74
2024/02/09 06:45:35;;;;;;;7.85;2.25;;;10.10;99.90;;;;;;5031337;28;20115;-74
2024/02/09 06:48:05;;;;;;;7.40;1.73;;;10.00;99.90;;;;;;5030212;28;20049;-74
2024/02/09 06:50:34;;;;;;;8.15;1.88;;;10.10;99.90;;;;;;5031279;28;20025;-74
2024/02/09 06:53:07;;;;;;;8.60;1.40;;;10.10;99.90;;;;;;5031029;28;20400;-74
2024/02/09 06:55:33;;;;;;;4.68;1.23;;;10.10;99.90;;;;;;5046246;28;20057;-74
2024/02/09 06:57:59;;;;;;;3.35;1.20;;;10.10;99.90;;;;;;5038584;28;20030;-74
2024/02/09 07:00:25;;;;;;;3.05;1.15;;;10.00;99.90;;;;;;5031491;28;20021;-74
2024/02/09 07:02:51;;;;;;;7.82;1.73;;;10.00;99.90;;;;;;5035006;28;20045;-74
2024/02/09 07:05:19;;;;;;;2.83;0.98;;;10.00;99.90;;;;;;5051135;28;20446;-74
2024/02/09 07:07:49;;;;;;;3.42;1.33;;;10.00;99.90;;;;;;5048125;28;20017;-74
2024/02/09 07:10:17;;;;;;;6.15;1.92;;;10.00;99.90;;;;;;5031011;28;20034;-74
2024/02/09 07:12:46;;;;;;;6.38;1.35;;;10.00;99.90;;;;;;5030198;28;20025;-75
2024/02/09 07:15:16;;;;;;;4.07;1.30;;;10.10;99.90;;;;;;5036084;28;20025;-74
2024/02/09 07:17:42;;;;;;;6.32;1.33;;;10.10;99.90;;;;;;5030605;28;20032;-74
2024/02/09 07:20:12;;;;;;;5.60;1.10;;;10.10;99.90;;;;;;5030793;28;20034;-74
2024/02/09 07:22:38;;;;;;;6.00;2.47;;;10.10;99.90;;;;;;5030980;28;20485;-74
2024/02/09 07:25:04;;;;;;;6.45;1.52;;;10.10;99.90;;;;;;5030783;28;20044;-74
2024/02/09 07:27:30;;;;;;;3.97;1.50;;;10.20;99.90;;;;;;5030995;28;20103;-74
2024/02/09 07:29:56;;;;;;;6.93;2.00;;;10.10;99.90;;;;;;5030283;28;20485;-74
2024/02/09 07:32:22;;;;;;;6.97;1.40;;;10.10;99.90;;;;;;5035392;28;20118;-74
2024/02/09 07:34:48;;;;;;;5.07;1.33;;;10.10;99.90;;;;;;5050555;28;20076;-74
2024/02/09 07:37:14;;;;;;;10.88;2.50;;;10.10;99.90;;;;;;5046389;28;20025;-74
2024/02/09 07:39:40;;;;;;;5.35;1.40;;;10.10;99.90;;;;;;5030984;28;20060;-74
2024/02/09 07:42:07;;;;;;;11.82;2.28;;;10.10;99.90;;;;;;5029981;28;20021;-74
2024/02/09 07:44:34;;;;;;;4.55;1.67;;;10.10;99.90;;;;;;5031380;28;20044;-74
2024/02/09 07:47:02;;;;;;;6.18;2.22;;;10.10;99.90;;;;;;5030515;28;20091;-74
2024/02/09 07:49:27;;;;;;;12.32;1.92;;;10.10;99.90;;;;;;5030339;28;20076;-74
2024/02/09 07:51:53;;;;;;;5.75;1.70;;;10.10;99.90;;;;;;5030258;28;20046;-74
2024/02/09 07:54:18;;;;;;;5.35;1.40;;;10.10;99.90;;;;;;5044334;28;20032;-74
2024/02/09 07:56:44;;;;;;;5.07;1.67;;;10.10;99.90;;;;;;5050337;28;20036;-75
2024/02/09 07:59:10;;;;;;;6.97;1.88;;;10.10;99.90;;;;;;5032894;28;20496;-74
2024/02/09 08:01:36;;;;;;;7.88;2.00;;;10.10;99.90;;;;;;5034357;28;20025;-74
2024/02/09 08:04:02;;;;;;;6.47;1.75;;;10.20;99.90;;;;;;5033886;28;20469;-74
2024/02/09 08:06:28;;;;;;;9.13;1.77;;;10.20;99.90;;;;;;5033038;28;20026;-74
2024/02/09 08:08:55;;;;;;;7.00;1.60;;;10.20;99.90;;;;;;5033751;28;20044;-74
2024/02/09 08:11:22;;;;;;;6.75;1.80;;;10.20;99.90;;;;;;5034070;28;20022;-74
2024/02/09 08:13:51;;;;;;;9.40;2.63;;;10.20;99.90;;;;;;5035662;28;20064;-74
2024/02/09 08:16:20;;;;;;;3.92;1.95;;;10.20;99.90;;;;;;5034197;28;20048;-74
2024/02/09 08:18:46;;;;;;;7.30;2.42;;;10.30;99.90;;;;;;5033200;28;20088;-75
2024/02/09 08:21:12;;;;;;;5.35;1.80;;;10.30;99.90;;;;;;5034166;28;20014;-74
2024/02/09 08:23:39;;;;;;;11.98;2.10;;;10.30;99.90;;;;;;5046356;28;20040;-74
2024/02/09 08:26:05;;;;;;;5.95;1.95;;;10.30;99.90;;;;;;5053453;28;20465;-74
2024/02/09 08:28:32;;;;;;;11.02;2.42;;;10.30;99.90;;;;;;5034568;28;20390;-74
2024/02/09 08:30:57;;;;;;;9.40;2.58;;;10.40;99.90;;;;;;5033307;28;20013;-74
2024/02/09 08:33:23;;;;;;;13.45;2.17;;;10.40;99.90;;;;;;5033016;28;20474;-74
2024/02/09 08:35:49;;;;;;;11.25;2.70;;;10.40;99.90;;;;;;5033250;28;20029;-73
2024/02/09 08:38:15;;;;;;;11.35;2.30;;;10.50;99.90;;;;;;5033230;28;20088;-74
2024/02/09 08:40:41;;;;;;;9.32;2.58;;;10.50;99.90;;;;;;5033234;28;20087;-74
2024/02/09 08:43:07;;;;;;;10.52;2.75;;;10.50;99.90;;;;;;5033007;28;20029;-74
2024/02/09 08:45:32;;;;;;;6.55;2.42;;;10.50;99.90;;;;;;5024481;28;20344;-74
2024/02/09 08:47:58;;;;;;;7.57;2.35;;;10.60;99.90;;;;;;5032694;28;20095;-74
2024/02/09 08:50:25;;;;;;;10.93;2.83;;;10.60;99.90;;;;;;5033453;28;20498;-74
2024/02/09 08:52:50;;;;;;;9.50;2.38;;;10.70;99.90;;;;;;5043100;28;20029;-74
2024/02/09 08:55:16;;;;;;;7.03;2.78;;;10.70;99.90;;;;;;5053073;28;20504;-74
2024/02/09 08:57:44;;;;;;;8.13;2.33;;;10.80;99.90;;;;;;5036815;28;20484;-74
2024/02/09 09:00:10;;;;;;;5.57;1.85;;;10.90;99.90;;;;;;5033294;28;20049;-74
2024/02/09 09:02:36;;;;;;;6.50;1.95;;;11.00;99.90;;;;;;5033254;28;20013;-74
2024/02/09 09:05:01;;;;;;;8.02;2.20;;;11.00;99.90;;;;;;5032760;28;20030;-74
2024/02/09 09:07:27;;;;;;;5.22;2.13;;;11.10;99.90;;;;;;5032028;28;20029;-74
2024/02/09 09:09:52;;;;;;;8.05;2.58;;;11.10;99.90;;;;;;5032528;28;20029;-74
2024/02/09 09:12:18;;;;;;;7.25;2.15;;;11.10;99.90;;;;;;5033066;28;20025;-74
2024/02/09 09:14:44;;;;;;;7.78;2.05;;;11.10;99.90;;;;;;5048288;28;20051;-74
2024/02/09 09:17:09;;;;;;;6.80;2.15;;;11.10;99.90;;;;;;5032643;28;20029;-74
2024/02/09 09:19:35;;;;;;;5.68;1.95;;;11.10;99.90;;;;;;5032779;28;20037;-74
2024/02/09 09:22:00;;;;;;;6.57;1.98;;;11.10;99.90;;;;;;5032327;28;20029;-75
2024/02/09 09:24:26;;;;;;;9.43;2.17;;;11.10;99.90;;;;;;5044784;28;20028;-74
2024/02/09 09:26:55;;;;;;;7.50;2.60;;;11.10;99.90;;;;;;5031230;28;20036;-75
2024/02/09 09:29:20;;;;;;;10.13;2.30;;;11.10;99.90;;;;;;5032723;28;20734;-74
2024/02/09 09:31:48;;;;;;;8.02;2.17;;;11.10;99.90;;;;;;5032295;28;20393;-74
2024/02/09 09:34:13;;;;;;;8.90;2.03;;;11.10;99.90;;;;;;5032482;28;20083;-74
2024/02/09 09:36:39;;;;;;;6.32;2.08;;;11.10;99.90;;;;;;5032787;28;20026;-74
2024/02/09 09:39:05;;;;;;;6.50;2.40;;;11.20;99.90;;;;;;5031643;28;20112;-74
2024/02/09 09:41:35;;;;;;;7.10;2.00;;;11.20;99.90;;;;;;5032533;28;20026;-74
2024/02/09 09:44:00;;;;;;;8.30;2.33;;;11.20;99.90;;;;;;5035300;28;20108;-74
2024/02/09 09:46:31;;;;;;;4.60;1.73;;;11.30;99.90;;;;;;5032214;28;20136;-74
2024/02/09 09:48:57;;;;;;;8.48;1.85;;;11.30;99.90;;;;;;5031085;28;20572;-74
2024/02/09 09:51:30;;;;;;;7.70;2.05;;;11.30;99.90;;;;;;5032537;28;20017;-74
2024/02/09 09:53:57;;;;;;;9.38;2.42;;;11.40;99.90;;;;;;5045079;28;20024;-75
2024/02/09 09:56:24;;;;;;;6.97;1.92;;;11.50;99.90;;;;;;5052021;28;20021;-74
2024/02/09 09:58:50;;;;;;;9.10;1.98;;;11.60;99.90;;;;;;5047936;28;20498;-74
2024/02/09 10:01:16;;;;;;;6.82;2.15;;;11.60;99.90;;;;;;5032084;28;20055;-75
2024/02/09 10:03:43;;;;;;;8.15;2.75;;;11.70;99.90;;;;;;5031369;28;20025;-74
2024/02/09 10:06:09;;;;;;;7.28;2.22;;;11.80;99.90;;;;;;5032117;28;20026;-74
2024/02/09 10:08:38;;;;;;;7.43;1.65;;;11.80;99.90;;;;;;5044207;28;20480;-74
2024/02/09 10:11:06;;;;;;;11.88;1.83;;;11.90;99.90;;;;;;5051398;28;20024;-74
2024/02/09 10:13:35;;;;;;;7.55;2.00;;;12.00;99.90;;;;;;5035303;28;20116;-74
2024/02/09 10:16:04;;;;;;;5.72;1.58;;;12.00;99.90;;;;;;5031569;28;20496;-75
2024/02/09 10:18:35;;;;;;;5.47;1.88;;;12.00;99.90;;;;;;5031630;28;20033;-74
2024/02/09 10:21:02;;;;;;;6.05;1.98;;;12.10;99.90;;;;;;5031139;28;20590;-75
2024/02/09 10:23:29;;;;;;;7.70;1.73;;;12.10;99.90;;;;;;5031379;28;20075;-74
2024/02/09 10:26:03;;;;;;;10.77;1.80;;;12.20;99.90;;;;;;5031420;28;20095;-74
2024/02/09 10:28:29;;;;;;;4.82;1.40;;;12.30;99.90;;;;;;5031444;28;20036;-75
2024/02/09 10:30:59;;;;;;;6.35;1.52;;;12.40;99.90;;;;;;5030056;28;20025;-75
2024/02/09 10:33:25;;;;;;;4.90;1.55;;;12.50;99.90;;;;;;5031293;28;20079;-75
2024/02/09 10:35:54;;;;;;;6.78;1.33;;;12.50;99.90;;;;;;5031637;28;20465;-75
2024/02/09 10:38:20;;;;;;;6.78;2.17;;;12.40;99.90;;;;;;5032974;28;20026;-74
2024/02/09 10:40:51;;;;;;;7.82;1.50;;;12.50;99.90;;;;;;5031088;28;20025;-75
2024/02/09 10:43:18;;;;;;;11.18;1.48;;;12.50;99.90;;;;;;5033829;28;20106;-77
2024/02/09 10:45:45;;;;;;;7.53;1.15;;;12.50;99.90;;;;;;5032830;28;20428;-75
2024/02/09 10:48:14;;;;;;;7.70;1.60;;;12.50;99.90;;;;;;5030857;28;20045;-75
2024/02/09 10:50:40;;;;;;;6.18;1.80;;;12.50;99.90;;;;;;5030750;28;20462;-75
2024/02/09 10:53:12;;;;;;;7.18;1.35;;;12.50;99.90;;;;;;5032498;28;20083;-75
2024/02/09 10:55:43;;;;;;;4.97;1.58;;;12.40;99.90;;;;;;5031432;28;20075;-75
2024/02/09 10:58:11;;;;;;;6.60;1.30;;;12.30;99.90;;;;;;5031320;28;20029;-75
2024/02/09 11:00:38;;;;;;;8.25;1.52;;;12.30;99.90;;;;;;5031543;28;20037;-76
2024/02/09 11:03:04;;;;;;;5.80;1.60;;;12.30;99.90;;;;;;5030312;28;20017;-75
2024/02/09 11:05:30;;;;;;;5.85;1.38;;;12.20;99.90;;;;;;5031138;28;20087;-75
2024/02/09 11:07:56;;;;;;;6.70;1.30;;;12.20;99.90;;;;;;5038567;28;20017;-75
2024/02/09 11:10:22;;;;;;;4.15;1.13;;;12.10;99.90;;;;;;5031241;28;20437;-75
2024/02/09 11:12:58;;;;;;;4.72;1.20;;;12.10;99.90;;;;;;5030262;28;20041;-76
2024/02/09 11:15:24;;;;;;;5.38;1.15;;;12.20;99.90;;;;;;5029724;28;20017;-75
2024/02/09 11:17:50;;;;;;;8.77;1.50;;;12.20;99.90;;;;;;5030521;28;20544;-75
2024/02/09 11:20:17;;;;;;;3.28;0.80;;;12.20;99.90;;;;;;5031146;28;20418;-75
2024/02/09 11:22:50;;;;;;;3.33;0.95;;;12.20;99.90;;;;;;5029318;28;20498;-75
2024/02/09 11:25:16;;;;;;;6.80;0.90;;;12.20;99.90;;;;;;5031584;28;20033;-75
2024/02/09 11:27:51;;;;;;;5.93;1.05;;;12.20;99.90;;;;;;5030878;28;20060;-75
2024/02/09 11:30:17;;;;;;;7.50;1.00;;;12.20;99.90;;;;;;5031091;28;20033;-75
2024/02/09 11:32:45;;;;;;;5.63;1.20;;;12.20;99.90;;;;;;5033106;28;20029;-76
2024/02/09 11:35:13;;;;;;;6.22;1.38;;;12.30;99.90;;;;;;5034965;28;20032;-75
2024/02/09 11:37:44;;;;;;;6.18;1.23;;;12.40;99.90;;;;;;5042732;28;20025;-75
2024/02/09 11:40:10;;;;;;;5.88;1.33;;;12.50;99.90;;;;;;5048777;28;20041;-75
2024/02/09 11:42:36;;;;;;;6.05;0.98;;;12.50;99.90;;;;;;5042221;28;20021;-75
2024/02/09 11:45:03;;;;;;;6.93;1.20;;;12.60;99.90;;;;;;5034669;28;20531;-75
2024/02/09 11:47:31;;;;;;;4.32;1.20;;;12.70;99.90;;;;;;5034888;28;20049;-75
2024/02/09 11:49:57;;;;;;;5.80;1.30;;;12.70;99.90;;;;;;5023418;28;20108;-75
2024/02/09 11:52:22;;;;;;;6.20;1.40;;;12.80;99.90;;;;;;5015141;28;20423;-75
2024/02/09 11:54:48;;;;;;;3.28;1.20;;;12.90;99.90;;;;;;5031543;28;20026;-76
2024/02/09 11:57:14;;;;;;;5.35;1.23;;;13.00;99.90;;;;;;5034836;28;20017;-76
2024/02/09 11:59:40;;;;;;;5.40;1.60;;;13.00;99.90;;;;;;5033992;28;20041;-75
2024/02/09 12:02:07;;;;;;;7.03;1.20;;;12.90;99.90;;;;;;5034400;28;20033;-75
2024/02/09 12:04:32;;;;;;;5.82;1.15;;;12.90;99.90;;;;;;5033993;28;20110;-75
2024/02/09 12:06:59;;;;;;;5.13;1.23;;;12.90;99.90;;;;;;5034003;28;20049;-75
2024/02/09 12:09:26;;;;;;;6.03;1.27;;;12.90;99.90;;;;;;5033265;28;20051;-75
2024/02/09 12:11:51;;;;;;;7.07;1.20;;;12.80;99.90;;;;;;5033849;28;20018;-75
2024/02/09 12:14:17;;;;;;;7.32;1.40;;;12.80;99.90;;;;;;5029599;28;20378;-75
2024/02/09 12:16:43;;;;;;;4.50;0.90;;;12.80;99.90;;;;;;5034471;28;20025;-75
2024/02/09 12:19:09;;;;;;;4.35;1.00;;;12.80;99.90;;;;;;5033621;28;20037;-75
2024/02/09 12:21:35;;;;;;;6.28;1.38;;;12.90;99.90;;;;;;5034278;28;20017;-75
2024/02/09 12:24:01;;;;;;;4.95;1.10;;;13.00;99.90;;;;;;5036677;28;20428;-75
2024/02/09 12:26:27;;;;;;;5.82;0.95;;;13.10;99.90;;;;;;5034249;28;20028;-75
2024/02/09 12:28:52;;;;;;;7.28;1.60;;;13.10;99.90;;;;;;5033242;28;20061;-76
2024/02/09 12:31:19;;;;;;;2.30;1.00;;;13.20;99.90;;;;;;5034055;28;20021;-75
2024/02/09 12:33:46;;;;;;;8.93;0.95;;;13.30;99.90;;;;;;5033184;28;20359;-75
2024/02/09 12:36:20;;;;;;;7.82;1.20;;;13.30;99.90;;;;;;5031446;28;20021;-76
2024/02/09 12:38:50;;;;;;;5.57;0.80;;;13.30;99.90;;;;;;5034926;28;20408;-76
2024/02/09 12:41:16;;;;;;;7.72;1.10;;;13.40;99.90;;;;;;5032674;28;20131;-76
2024/02/09 12:43:44;;;;;;;5.30;0.80;;;13.30;99.90;;;;;;5033272;28;20104;-76
2024/02/09 12:46:10;;;;;;;5.35;0.70;;;13.30;99.90;;;;;;5033268;28;20029;-76
2024/02/09 12:48:36;;;;;;;6.05;1.42;;;13.40;99.90;;;;;;5032147;28;20045;-75
2024/02/09 12:51:04;;;;;;;4.07;0.80;;;13.50;99.90;;;;;;5033217;28;20026;-76
2024/02/09 12:53:31;;;;;;;4.68;0.80;;;13.50;99.90;;;;;;5033936;28;20473;-75
2024/02/09 12:55:57;;;;;;;7.50;1.60;;;13.60;99.90;;;;;;5024560;28;20117;-76
2024/02/09 12:58:23;;;;;;;5.47;0.90;;;13.50;99.90;;;;;;5033468;28;20411;-76
2024/02/09 13:00:49;;;;;;;3.08;0.63;;;13.50;99.90;;;;;;5032934;28;20113;-75
2024/02/09 13:03:15;;;;;;;5.47;0.90;;;13.60;99.90;;;;;;5040769;28;20028;-76
2024/02/09 13:05:41;;;;;;;2.85;0.70;;;13.50;99.90;;;;;;5053130;28;20102;-76
2024/02/09 13:08:09;;;;;;;7.13;0.68;;;13.50;99.90;;;;;;5049755;28;20136;-75
2024/02/09 13:10:35;;;;;;;4.80;0.70;;;13.60;99.90;;;;;;5032973;28;20136;-75
2024/02/09 13:13:10;;;;;;;11.07;1.38;;;13.60;99.90;;;;;;5031991;28;20052;-75
2024/02/09 13:15:38;;;;;;;7.15;1.30;;;13.60;99.90;;;;;;5033046;28;20033;-75
2024/02/09 13:18:08;;;;;;;6.40;1.08;;;13.60;99.90;;;;;;5032097;28;20018;-76
2024/02/09 13:20:36;;;;;;;6.00;1.02;;;13.60;99.90;;;;;;5032835;28;20082;-75
2024/02/09 13:23:02;;;;;;;7.72;1.40;;;13.60;99.90;;;;;;5032557;28;20032;-76
2024/02/09 13:25:35;;;;;;;8.63;1.48;;;13.50;99.90;;;;;;5034748;28;20107;-76
2024/02/09 13:28:02;;;;;;;5.32;1.13;;;13.50;99.90;;;;;;5032257;28;20477;-75
2024/02/09 13:30:28;;;;;;;4.20;0.93;;;13.40;99.90;;;;;;5031431;28;20100;-76
2024/02/09 13:32:57;;;;;;;7.63;1.15;;;13.40;99.90;;;;;;5032085;28;20028;-76
2024/02/09 13:35:24;;;;;;;6.78;1.55;;;13.40;99.90;;;;;;5029547;28;20359;-75
2024/02/09 13:37:50;;;;;;;7.20;1.63;;;13.40;99.90;;;;;;5035550;28;20350;-76
2024/02/09 13:40:16;;;;;;;6.93;1.73;;;13.30;99.90;;;;;;5033908;28;20036;-76
2024/02/09 13:42:50;;;;;;;7.85;1.38;;;13.30;99.90;;;;;;5036285;28;20060;-75
2024/02/09 13:45:18;;;;;;;6.18;1.58;;;13.30;99.90;;;;;;5055700;28;20025;-76
2024/02/09 13:47:44;;;;;;;5.13;1.67;;;13.20;99.90;;;;;;5047732;28;20042;-77
2024/02/09 13:50:11;;;;;;;6.22;1.45;;;13.20;99.90;;;;;;5035859;28;20125;-76
2024/02/09 13:52:46;;;;;;;4.80;0.93;;;13.20;99.90;;;;;;5032561;28;20026;-76
2024/02/09 13:55:17;;;;;;;3.80;1.00;;;13.20;99.90;;;;;;5051814;28;20032;-76
2024/02/09 13:57:43;;;;;;;3.58;0.85;;;13.20;99.90;;;;;;5051476;28;20078;-76
2024/02/09 14:00:10;;;;;;;6.55;1.27;;;13.10;99.90;;;;;;5032712;28;20029;-76
2024/02/09 14:02:36;;;;;;;4.90;1.55;;;13.10;99.90;;;;;;5021114;28;20613;-76
2024/02/09 14:05:04;;;;;;;4.13;0.82;;;13.10;99.90;;;;;;5011887;28;20121;-76
2024/02/09 14:07:31;;;;;;;7.93;1.15;;;13.10;99.90;;;;;;5022667;28;20029;-76
2024/02/09 14:09:57;;;;;;;5.82;0.90;;;13.20;99.90;;;;;;5030349;28;20040;-76
2024/02/09 14:12:23;;;;;;;5.80;1.30;;;13.20;99.90;;;;;;5031259;28;20044;-75
2024/02/09 14:14:50;;;;;;;8.15;1.60;;;13.30;99.90;;;;;;5031219;28;20013;-76
2024/02/09 14:17:15;;;;;;;3.28;1.00;;;13.40;99.90;;;;;;5031379;28;20060;-76
2024/02/09 14:19:42;;;;;;;5.63;1.05;;;13.40;99.90;;;;;;5031468;28;20126;-76
2024/02/09 14:22:08;;;;;;;7.90;1.27;;;13.40;99.90;;;;;;5031476;28;20025;-76
2024/02/09 14:24:37;;;;;;;4.82;1.08;;;13.40;99.90;;;;;;5031376;28;20394;-76
2024/02/09 14:27:07;;;;;;;4.28;0.93;;;13.50;99.90;;;;;;5031361;28;20028;-76
2024/02/09 14:29:33;;;;;;;5.07;1.00;;;13.40;99.90;;;;;;5031433;28;20076;-76
2024/02/09 14:31:59;;;;;;;4.25;1.23;;;13.50;99.90;;;;;;5030709;28;20020;-76